CPA829 CYYZ-VHHH
Flight info
| Callsign | CPA829 |
|---|---|
| Flight time | N/A |
| Altitude | FL330 |
| Route | SEDOG6 BOBSU SMARE YVO 50N077W 55N076W 60N077W 65N079W 70N083W 75N090W 80N110W 82N130W LAHEY PELER 8130N17700E 80N164E 78N153E 76N145E RUTIN M177 BALOM T479 PANAR G913 ARTUN N615 SULOK Y327 POLHO G218 TMR B458 DADGA W37 OMBEB R473 WYN W18 NLG W23 ZUH R473 SIERA SIER7A |
| Aircraft | A35K/H-SDE2E3GHIJ3J4J5LM1ORWXY/LB1D1 |
Departure
| Time | N/A |
|---|---|
| Airport | Toronto Pearson International Airport (CYYZ) |
Arrival
| Time | 2026-05-04 16:49 |
|---|---|
| Airport | Hong Kong International Airport (VHHH) |
| Time | Latitude | Longitude | Altitude | Speed | Heading |
|---|---|---|---|---|---|
| 2026-05-04 15:30 | 30.23834 | 113.98066 | 38108 ft | 463 kts | 213° |
| 2026-05-04 15:30 | 30.15088 | 113.93385 | 38105 ft | 463 kts | 213° |
| 2026-05-04 15:31 | 30.06341 | 113.88707 | 38109 ft | 463 kts | 213° |
| 2026-05-04 15:32 | 29.91754 | 113.80931 | 38109 ft | 463 kts | 213° |
| 2026-05-04 15:33 | 29.85556 | 113.78564 | 38110 ft | 482 kts | 199° |
| 2026-05-04 15:34 | 29.75387 | 113.77539 | 38115 ft | 494 kts | 193° |
| 2026-05-04 15:34 | 29.65108 | 113.76915 | 38117 ft | 494 kts | 193° |
| 2026-05-04 15:35 | 29.54832 | 113.76227 | 38125 ft | 494 kts | 193° |
| 2026-05-04 15:36 | 29.44552 | 113.75512 | 38126 ft | 495 kts | 193° |
| 2026-05-04 15:36 | 29.37693 | 113.75034 | 38130 ft | 495 kts | 193° |
| 2026-05-04 15:37 | 29.30833 | 113.74558 | 38133 ft | 495 kts | 193° |
| 2026-05-04 15:37 | 29.23972 | 113.74086 | 38276 ft | 495 kts | 193° |
| 2026-05-04 15:38 | 29.20530 | 113.73913 | 38534 ft | 498 kts | 190° |
| 2026-05-04 15:38 | 29.17060 | 113.73956 | 38789 ft | 502 kts | 188° |
| 2026-05-04 15:38 | 29.13569 | 113.74113 | 38976 ft | 503 kts | 187° |
| 2026-05-04 15:38 | 29.10068 | 113.74298 | 39030 ft | 506 kts | 187° |
| 2026-05-04 15:39 | 29.03056 | 113.74622 | 39048 ft | 504 kts | 188° |
| 2026-05-04 15:40 | 28.92572 | 113.74968 | 39044 ft | 503 kts | 188° |
| 2026-05-04 15:40 | 28.85594 | 113.75164 | 39050 ft | 503 kts | 188° |
| 2026-05-04 15:41 | 28.78618 | 113.75363 | 39052 ft | 502 kts | 188° |
| 2026-05-04 15:41 | 28.71687 | 113.75321 | 39050 ft | 495 kts | 193° |
| 2026-05-04 15:42 | 28.64830 | 113.74869 | 39056 ft | 494 kts | 193° |
| 2026-05-04 15:42 | 28.57990 | 113.74358 | 39054 ft | 493 kts | 194° |
| 2026-05-04 15:43 | 28.51150 | 113.73844 | 39054 ft | 493 kts | 194° |
| 2026-05-04 15:43 | 28.44317 | 113.73339 | 39056 ft | 493 kts | 193° |
| 2026-05-04 15:44 | 28.37494 | 113.72836 | 39058 ft | 493 kts | 193° |
| 2026-05-04 15:44 | 28.30669 | 113.72335 | 39064 ft | 493 kts | 193° |
| 2026-05-04 15:45 | 28.23843 | 113.71850 | 39056 ft | 492 kts | 193° |
| 2026-05-04 15:45 | 28.17034 | 113.71364 | 39061 ft | 491 kts | 193° |
| 2026-05-04 15:46 | 28.10225 | 113.70861 | 39052 ft | 491 kts | 194° |
| 2026-05-04 15:46 | 28.03445 | 113.70270 | 39053 ft | 490 kts | 194° |
| 2026-05-04 15:47 | 27.96673 | 113.69635 | 39056 ft | 489 kts | 194° |
| 2026-05-04 15:47 | 27.89904 | 113.69008 | 39051 ft | 489 kts | 194° |
| 2026-05-04 15:48 | 27.83133 | 113.68400 | 39053 ft | 489 kts | 194° |
| 2026-05-04 15:48 | 27.72984 | 113.67499 | 39053 ft | 489 kts | 194° |
| 2026-05-04 15:49 | 27.66217 | 113.66898 | 39054 ft | 489 kts | 194° |
| 2026-05-04 15:49 | 27.59421 | 113.66430 | 39054 ft | 493 kts | 191° |
| 2026-05-04 15:50 | 27.52548 | 113.66340 | 39054 ft | 495 kts | 190° |
| 2026-05-04 15:50 | 27.45671 | 113.66281 | 39056 ft | 495 kts | 190° |
| 2026-05-04 15:51 | 27.38802 | 113.66164 | 39059 ft | 495 kts | 191° |
| 2026-05-04 15:51 | 27.31941 | 113.66013 | 39061 ft | 495 kts | 191° |
| 2026-05-04 15:52 | 27.25066 | 113.65857 | 39058 ft | 495 kts | 191° |
| 2026-05-04 15:52 | 27.18159 | 113.65968 | 39058 ft | 507 kts | 182° |
| 2026-05-04 15:53 | 27.11173 | 113.67610 | 39062 ft | 518 kts | 175° |
| 2026-05-04 15:53 | 27.04214 | 113.69670 | 39063 ft | 519 kts | 174° |
| 2026-05-04 15:54 | 26.97250 | 113.71782 | 39065 ft | 519 kts | 174° |
| 2026-05-04 15:54 | 26.90282 | 113.73861 | 39065 ft | 519 kts | 174° |
| 2026-05-04 15:55 | 26.83312 | 113.75916 | 39066 ft | 519 kts | 174° |
| 2026-05-04 15:55 | 26.76350 | 113.77960 | 39068 ft | 518 kts | 174° |
| 2026-05-04 15:56 | 26.69405 | 113.80042 | 39071 ft | 519 kts | 173° |
| 2026-05-04 15:56 | 26.62458 | 113.82234 | 39076 ft | 519 kts | 173° |
| 2026-05-04 15:57 | 26.55530 | 113.84428 | 39084 ft | 519 kts | 173° |
| 2026-05-04 15:57 | 26.48594 | 113.86607 | 39085 ft | 518 kts | 173° |
| 2026-05-04 15:58 | 26.41664 | 113.88653 | 39093 ft | 516 kts | 175° |
| 2026-05-04 15:58 | 26.34727 | 113.90617 | 39099 ft | 515 kts | 175° |
| 2026-05-04 15:59 | 26.27803 | 113.92590 | 39098 ft | 515 kts | 174° |
| 2026-05-04 15:59 | 26.20882 | 113.94580 | 39109 ft | 515 kts | 174° |
| 2026-05-04 16:00 | 26.13965 | 113.96573 | 39108 ft | 515 kts | 174° |
| 2026-05-04 16:00 | 26.07042 | 113.98568 | 39104 ft | 515 kts | 174° |
| 2026-05-04 16:01 | 26.00127 | 114.00560 | 39099 ft | 514 kts | 174° |
| 2026-05-04 16:01 | 25.93227 | 114.02602 | 39105 ft | 514 kts | 174° |
| 2026-05-04 16:02 | 25.86330 | 114.04665 | 39101 ft | 514 kts | 174° |
| 2026-05-04 16:03 | 25.75983 | 114.07742 | 39094 ft | 514 kts | 174° |
| 2026-05-04 16:03 | 25.69082 | 114.09787 | 39091 ft | 514 kts | 174° |
| 2026-05-04 16:04 | 25.62193 | 114.11827 | 39082 ft | 513 kts | 174° |
| 2026-05-04 16:04 | 25.51867 | 114.14876 | 39092 ft | 513 kts | 174° |
| 2026-05-04 16:05 | 25.44994 | 114.16902 | 39087 ft | 512 kts | 174° |
| 2026-05-04 16:06 | 25.34685 | 114.19938 | 39079 ft | 512 kts | 174° |
| 2026-05-04 16:07 | 25.20972 | 114.23967 | 39081 ft | 511 kts | 173° |
| 2026-05-04 16:07 | 25.10668 | 114.26572 | 39079 ft | 498 kts | 184° |
| 2026-05-04 16:08 | 25.07257 | 114.26617 | 39080 ft | 485 kts | 193° |
| 2026-05-04 16:09 | 24.90964 | 114.23337 | 39082 ft | 476 kts | 200° |
| 2026-05-04 16:10 | 24.77967 | 114.20465 | 39085 ft | 478 kts | 199° |
| 2026-05-04 16:11 | 24.64932 | 114.17639 | 39084 ft | 479 kts | 199° |
| 2026-05-04 16:12 | 24.45350 | 114.13404 | 39079 ft | 479 kts | 199° |
| 2026-05-04 16:13 | 24.32315 | 114.10550 | 39086 ft | 476 kts | 201° |
| 2026-05-04 16:14 | 24.19688 | 114.06574 | 39079 ft | 472 kts | 204° |
| 2026-05-04 16:16 | 24.03874 | 114.01695 | 39082 ft | 474 kts | 203° |
| 2026-05-04 16:17 | 23.88027 | 113.96899 | 39078 ft | 473 kts | 203° |
| 2026-05-04 16:18 | 23.75358 | 113.93066 | 39071 ft | 473 kts | 203° |
| 2026-05-04 16:19 | 23.59515 | 113.88284 | 39070 ft | 473 kts | 202° |
| 2026-05-04 16:20 | 23.43663 | 113.83516 | 39063 ft | 474 kts | 202° |
| 2026-05-04 16:22 | 23.27791 | 113.78720 | 39056 ft | 474 kts | 202° |
| 2026-05-04 16:23 | 23.08742 | 113.72994 | 39056 ft | 475 kts | 202° |
| 2026-05-04 16:24 | 22.96192 | 113.69246 | 38472 ft | 455 kts | 202° |
| 2026-05-04 16:25 | 22.90090 | 113.67416 | 37160 ft | 456 kts | 202° |
| 2026-05-04 16:26 | 22.77813 | 113.63681 | 34587 ft | 462 kts | 203° |
| 2026-05-04 16:26 | 22.68454 | 113.60810 | 32267 ft | 470 kts | 202° |
| 2026-05-04 16:27 | 22.62151 | 113.58891 | 30700 ft | 474 kts | 202° |
| 2026-05-04 16:28 | 22.52653 | 113.56012 | 28593 ft | 468 kts | 201° |
| 2026-05-04 16:28 | 22.43401 | 113.53190 | 26841 ft | 456 kts | 201° |
| 2026-05-04 16:29 | 22.31420 | 113.49503 | 24604 ft | 442 kts | 200° |
| 2026-05-04 16:30 | 22.22499 | 113.47362 | 22842 ft | 443 kts | 184° |
| 2026-05-04 16:31 | 22.16465 | 113.48753 | 21678 ft | 447 kts | 166° |
| 2026-05-04 16:31 | 22.07799 | 113.51930 | 20473 ft | 424 kts | 166° |
| 2026-05-04 16:32 | 21.99838 | 113.54852 | 19943 ft | 389 kts | 166° |
| 2026-05-04 16:33 | 21.94792 | 113.56920 | 18994 ft | 389 kts | 161° |
| 2026-05-04 16:33 | 21.89882 | 113.59258 | 18108 ft | 384 kts | 161° |
| 2026-05-04 16:34 | 21.85033 | 113.61517 | 17238 ft | 376 kts | 161° |
| 2026-05-04 16:34 | 21.82649 | 113.62619 | 16821 ft | 372 kts | 161° |
| 2026-05-04 16:35 | 21.75627 | 113.65850 | 15595 ft | 361 kts | 161° |
| 2026-05-04 16:35 | 21.68823 | 113.69082 | 14386 ft | 356 kts | 153° |
| 2026-05-04 16:36 | 21.66963 | 113.70834 | 13979 ft | 361 kts | 129° |
| 2026-05-04 16:36 | 21.65773 | 113.75945 | 13158 ft | 364 kts | 80° |
| 2026-05-04 16:37 | 21.68332 | 113.80449 | 12355 ft | 359 kts | 33° |
| 2026-05-04 16:37 | 21.70565 | 113.81525 | 11960 ft | 351 kts | 9° |
| 2026-05-04 16:37 | 21.75334 | 113.81828 | 11259 ft | 341 kts | 10° |
| 2026-05-04 16:38 | 21.79206 | 113.84453 | 10910 ft | 325 kts | 41° |
| 2026-05-04 16:39 | 21.84115 | 113.88919 | 10418 ft | 293 kts | 22° |
| 2026-05-04 16:39 | 21.87848 | 113.88974 | 10127 ft | 260 kts | 334° |
| 2026-05-04 16:40 | 21.91004 | 113.87426 | 9842 ft | 242 kts | 330° |
| 2026-05-04 16:40 | 21.94018 | 113.85900 | 9250 ft | 238 kts | 331° |
| 2026-05-04 16:41 | 21.97006 | 113.84404 | 8645 ft | 236 kts | 331° |
| 2026-05-04 16:41 | 22.01450 | 113.82189 | 7733 ft | 234 kts | 332° |
| 2026-05-04 16:42 | 22.05854 | 113.79994 | 6857 ft | 232 kts | 332° |
| 2026-05-04 16:43 | 22.08767 | 113.78544 | 6318 ft | 230 kts | 333° |
| 2026-05-04 16:43 | 22.11777 | 113.77448 | 5737 ft | 230 kts | 352° |
| 2026-05-04 16:43 | 22.13362 | 113.77277 | 5474 ft | 229 kts | 354° |
| 2026-05-04 16:44 | 22.19636 | 113.76678 | 4378 ft | 224 kts | 355° |
| 2026-05-04 16:45 | 22.22755 | 113.76370 | 3578 ft | 235 kts | 357° |
| 2026-05-04 16:46 | 22.27274 | 113.77783 | 2261 ft | 228 kts | 58° |
| 2026-05-04 16:46 | 22.28207 | 113.80849 | 1782 ft | 205 kts | 75° |
| 2026-05-04 16:47 | 22.29100 | 113.83562 | 1269 ft | 180 kts | 73° |
| 2026-05-04 16:47 | 22.29836 | 113.85894 | 832 ft | 150 kts | 72° |
| 2026-05-04 16:48 | 22.30788 | 113.88857 | 279 ft | 140 kts | 73° |
| 2026-05-04 16:48 | 22.31107 | 113.89849 | 96 ft | 140 kts | 73° |
| 2026-05-04 16:49 | 22.31667 | 113.91585 | 44 ft | 97 kts | 70° |
| 2026-05-04 16:49 | 22.31929 | 113.92426 | 43 ft | 0 kts | 70° |
| 2026-05-04 16:50 | 22.31926 | 113.92571 | 43 ft | 16 kts | 95° |
| 2026-05-04 16:50 | 22.31844 | 113.92646 | 43 ft | 6 kts | 236° |
| 2026-05-04 16:51 | 22.31790 | 113.92524 | 43 ft | 12 kts | 247° |
| 2026-05-04 16:51 | 22.31760 | 113.92449 | 43 ft | 14 kts | 246° |